createdAt,value
2017-07-22T00:00:45.049Z,17.93
2017-07-22T00:03:12.621Z,11.67
2017-07-22T00:05:40.398Z,17.27
2017-07-22T00:10:49.892Z,15.30
2017-07-22T00:13:24.319Z,14.90
2017-07-22T00:15:52.719Z,16.77
2017-07-22T00:18:25.737Z,16.00
2017-07-22T00:20:53.266Z,22.10
2017-07-22T00:23:20.770Z,15.47
2017-07-22T00:25:49.224Z,17.73
2017-07-22T00:28:16.753Z,18.97
2017-07-22T00:30:44.223Z,14.17
2017-07-22T00:33:23.160Z,17.50
2017-07-22T00:35:50.667Z,13.00
2017-07-22T00:38:18.440Z,12.00
2017-07-22T00:40:46.044Z,16.80
2017-07-22T00:43:13.768Z,14.47
2017-07-22T00:45:41.472Z,18.23
2017-07-22T00:48:09.903Z,15.53
2017-07-22T00:50:40.538Z,20.17
2017-07-22T00:53:08.721Z,17.10
2017-07-22T00:55:36.374Z,20.17
2017-07-22T00:58:04.433Z,18.57
2017-07-22T01:00:31.903Z,21.20
2017-07-22T01:02:59.355Z,21.77
2017-07-22T01:05:27.556Z,15.70
2017-07-22T01:07:55.220Z,23.40
2017-07-22T01:10:22.731Z,16.13
2017-07-22T01:12:50.651Z,16.73
2017-07-22T01:15:18.231Z,17.53
2017-07-22T01:17:45.737Z,16.40
2017-07-22T01:20:13.232Z,15.53
2017-07-22T01:22:40.716Z,15.90
2017-07-22T01:25:08.223Z,20.27
2017-07-22T01:27:35.742Z,20.27
2017-07-22T01:30:03.252Z,21.53
2017-07-22T01:32:32.085Z,13.53
2017-07-22T01:34:59.596Z,18.97
2017-07-22T01:37:27.174Z,14.73
2017-07-22T01:39:54.795Z,16.60
2017-07-22T01:42:22.294Z,19.23
2017-07-22T01:44:49.827Z,11.83
2017-07-22T01:47:17.280Z,12.30
2017-07-22T01:49:44.884Z,12.63
2017-07-22T01:52:12.338Z,11.20
2017-07-22T01:54:39.828Z,9.60
2017-07-22T01:57:07.420Z,11.73
2017-07-22T01:59:34.967Z,10.67
2017-07-22T02:02:02.455Z,12.00
2017-07-22T02:04:30.674Z,12.83
2017-07-22T02:06:58.186Z,11.40
2017-07-22T02:09:25.667Z,13.63
2017-07-22T02:11:53.143Z,10.93
2017-07-22T02:14:20.641Z,10.33
2017-07-22T02:16:48.077Z,7.30
2017-07-22T02:19:15.569Z,10.10
2017-07-22T02:21:43.099Z,8.30
2017-07-22T02:24:10.620Z,8.63
2017-07-22T02:26:38.054Z,9.40
2017-07-22T02:29:06.342Z,9.60
2017-07-22T02:31:33.845Z,14.93
2017-07-22T02:34:01.286Z,7.50
2017-07-22T02:36:28.791Z,9.50
2017-07-22T02:38:56.259Z,12.17
2017-07-22T02:41:23.873Z,9.07
2017-07-22T02:43:51.406Z,9.03
2017-07-22T02:46:18.859Z,11.03
2017-07-22T02:48:46.327Z,9.07
2017-07-22T02:51:13.851Z,10.90
2017-07-22T02:53:41.306Z,10.97
2017-07-22T02:56:10.881Z,9.43
2017-07-22T02:58:38.387Z,9.10
2017-07-22T03:01:05.875Z,9.77
2017-07-22T03:03:33.383Z,8.97
2017-07-22T03:06:01.977Z,9.20
2017-07-22T03:08:29.541Z,10.47
2017-07-22T03:10:57.061Z,9.40
2017-07-22T03:13:24.517Z,10.00
2017-07-22T03:15:52.074Z,13.20
2017-07-22T03:18:20.760Z,8.90
2017-07-22T03:20:48.263Z,11.20
2017-07-22T03:23:15.716Z,14.40
2017-07-22T03:25:43.276Z,13.03
2017-07-22T03:28:10.739Z,14.47
2017-07-22T03:30:39.012Z,11.87
2017-07-22T03:33:06.527Z,13.30
2017-07-22T03:35:34.001Z,16.83
2017-07-22T03:38:01.504Z,14.70
2017-07-22T03:40:29.058Z,12.73
2017-07-22T03:42:56.579Z,14.57
2017-07-22T03:45:24.071Z,15.77
2017-07-22T03:47:51.572Z,13.93
2017-07-22T03:50:19.056Z,14.60
2017-07-22T03:52:46.696Z,18.93
2017-07-22T03:55:14.182Z,16.27
2017-07-22T03:57:41.760Z,23.33
2017-07-22T04:00:10.027Z,22.60
2017-07-22T04:02:38.300Z,23.20
2017-07-22T04:05:05.738Z,32.43
2017-07-22T04:07:33.251Z,27.60
2017-07-22T04:10:00.678Z,24.57
2017-07-22T04:12:28.938Z,26.23
2017-07-22T04:14:56.402Z,21.10
2017-07-22T04:17:23.934Z,21.87
2017-07-22T04:19:51.732Z,18.70
2017-07-22T04:22:19.975Z,23.10
2017-07-22T04:24:47.443Z,27.70
2017-07-22T04:27:14.971Z,23.40
2017-07-22T04:29:42.453Z,25.20
2017-07-22T04:32:09.906Z,27.10
2017-07-22T04:34:37.445Z,23.27
2017-07-22T04:37:04.934Z,25.30
2017-07-22T04:39:32.595Z,22.63
2017-07-22T04:42:00.140Z,22.23
2017-07-22T04:44:27.637Z,24.80
2017-07-22T04:46:55.858Z,25.20
2017-07-22T04:49:24.131Z,22.73
2017-07-22T04:51:51.636Z,18.73
2017-07-22T04:54:19.892Z,20.33
2017-07-22T04:56:47.360Z,25.30
2017-07-22T04:59:14.853Z,26.07
2017-07-22T05:01:42.695Z,23.87
2017-07-22T05:04:10.247Z,26.10
2017-07-22T05:06:37.692Z,25.53
2017-07-22T05:09:06.022Z,24.50
2017-07-22T05:11:33.539Z,24.33
2017-07-22T05:14:01.012Z,25.47
2017-07-22T05:16:28.555Z,26.00
2017-07-22T05:18:56.050Z,24.70
2017-07-22T05:21:23.647Z,21.70
2017-07-22T05:23:51.915Z,21.47
2017-07-22T05:26:19.403Z,20.30
2017-07-22T05:28:47.031Z,19.73
2017-07-22T05:31:16.038Z,18.57
2017-07-22T05:33:43.573Z,19.77
2017-07-22T05:36:11.183Z,18.43
2017-07-22T05:38:39.581Z,14.83
2017-07-22T05:41:07.787Z,16.57
2017-07-22T05:43:35.823Z,13.10
2017-07-22T05:46:03.267Z,15.63
2017-07-22T05:48:31.533Z,12.43
2017-07-22T05:50:59.936Z,11.53
2017-07-22T05:53:27.529Z,12.37
2017-07-22T05:55:56.240Z,11.67
2017-07-22T05:58:23.750Z,11.20
2017-07-22T06:00:51.236Z,9.90
2017-07-22T06:03:19.419Z,11.57
2017-07-22T06:05:48.812Z,9.53
2017-07-22T06:08:16.324Z,10.83
2017-07-22T06:10:43.880Z,8.03
2017-07-22T06:13:13.007Z,7.60
2017-07-22T06:15:41.254Z,7.67
2017-07-22T06:18:09.258Z,5.63
2017-07-22T06:20:37.480Z,8.80
2017-07-22T06:23:04.928Z,4.70
2017-07-22T06:25:32.562Z,5.00
2017-07-22T06:28:00.135Z,6.60
2017-07-22T06:30:27.646Z,4.40
2017-07-22T06:32:55.192Z,5.63
2017-07-22T06:35:22.731Z,5.50
2017-07-22T06:37:50.238Z,6.03
2017-07-22T06:40:19.709Z,4.53
2017-07-22T06:42:48.108Z,8.10
2017-07-22T06:45:15.586Z,5.57
2017-07-22T06:47:43.104Z,5.43
2017-07-22T06:50:10.580Z,5.43
2017-07-22T06:52:39.063Z,4.33
2017-07-22T06:55:08.110Z,6.77
2017-07-22T06:57:35.700Z,5.77
2017-07-22T07:00:04.378Z,4.63
2017-07-22T07:02:34.046Z,5.43
2017-07-22T07:05:02.184Z,4.80
2017-07-22T07:07:29.841Z,4.73
2017-07-22T07:09:58.527Z,4.67
2017-07-22T07:12:26.068Z,5.40
2017-07-22T07:14:53.615Z,4.20
2017-07-22T07:17:22.542Z,4.30
2017-07-22T07:19:54.045Z,4.63
2017-07-22T07:22:21.514Z,5.07
2017-07-22T07:24:49.480Z,5.13
2017-07-22T07:27:17.216Z,5.73
2017-07-22T07:29:44.926Z,4.23
2017-07-22T07:32:13.366Z,7.40
2017-07-22T07:34:41.080Z,4.40
2017-07-22T07:37:08.616Z,4.90
2017-07-22T07:39:36.067Z,4.97
2017-07-22T07:42:04.447Z,4.67
2017-07-22T07:44:36.609Z,4.40
2017-07-22T07:47:04.836Z,3.67
2017-07-22T07:49:44.486Z,4.07
2017-07-22T07:54:50.065Z,5.33
2017-07-22T07:57:19.867Z,5.23
2017-07-22T07:59:48.096Z,4.33
2017-07-22T08:02:16.422Z,5.73
2017-07-22T08:04:47.449Z,3.90
2017-07-22T08:07:19.979Z,7.53
2017-07-22T08:09:47.628Z,6.30
2017-07-22T08:12:15.931Z,4.20
2017-07-22T08:14:43.496Z,3.90
2017-07-22T08:17:11.008Z,4.80
2017-07-22T08:19:38.532Z,6.70
2017-07-22T08:22:06.621Z,3.10
2017-07-22T08:24:37.063Z,5.00
2017-07-22T08:27:07.203Z,6.37
2017-07-22T08:29:38.396Z,4.50
2017-07-22T08:32:06.022Z,4.27
2017-07-22T08:34:33.541Z,3.70
2017-07-22T08:37:02.104Z,4.63
2017-07-22T08:39:29.633Z,6.50
2017-07-22T08:41:57.179Z,5.53
2017-07-22T08:44:24.734Z,5.90
2017-07-22T08:46:52.291Z,4.73
2017-07-22T08:49:19.841Z,7.47
2017-07-22T08:51:47.327Z,4.77
2017-07-22T08:54:15.050Z,2.87
2017-07-22T08:56:42.909Z,4.00
2017-07-22T08:59:10.471Z,4.13
2017-07-22T09:01:41.674Z,4.30
2017-07-22T09:04:12.226Z,7.40
2017-07-22T09:06:41.658Z,7.50
2017-07-22T09:09:09.413Z,5.77
2017-07-22T09:11:40.807Z,4.57
2017-07-22T09:14:08.403Z,6.30
2017-07-22T09:16:36.134Z,3.80
2017-07-22T09:19:03.689Z,6.10
2017-07-22T09:21:31.954Z,6.67
2017-07-22T09:23:59.599Z,4.73
2017-07-22T09:26:27.336Z,7.23
2017-07-22T09:28:55.449Z,5.50
2017-07-22T09:31:22.953Z,4.40
2017-07-22T09:33:52.072Z,11.00
2017-07-22T09:36:20.415Z,3.00
2017-07-22T09:38:48.651Z,8.70
2017-07-22T09:41:17.016Z,6.47
2017-07-22T09:43:44.715Z,5.20
2017-07-22T09:46:12.269Z,4.93
2017-07-22T09:48:39.837Z,4.03
2017-07-22T09:51:07.937Z,5.60
2017-07-22T09:53:35.499Z,4.47
2017-07-22T09:56:04.436Z,3.40
2017-07-22T09:58:32.096Z,4.07
2017-07-22T10:01:00.621Z,4.43
2017-07-22T10:03:28.331Z,4.47
2017-07-22T10:06:01.852Z,4.93
2017-07-22T10:08:31.356Z,6.83
2017-07-22T10:10:58.962Z,3.63
2017-07-22T10:13:28.213Z,3.63
2017-07-22T10:15:57.480Z,3.80
2017-07-22T10:18:36.008Z,3.60
2017-07-22T10:23:50.880Z,6.07
2017-07-22T10:26:30.192Z,8.57
2017-07-22T10:28:59.319Z,5.50
2017-07-22T10:31:26.821Z,4.37
2017-07-22T10:33:54.382Z,4.17
2017-07-22T10:36:21.965Z,4.00
2017-07-22T10:38:50.492Z,3.93
2017-07-22T10:41:18.068Z,5.07
2017-07-22T10:43:46.507Z,4.03
2017-07-22T10:46:14.755Z,4.10
2017-07-22T10:48:42.311Z,5.03
2017-07-22T10:51:10.880Z,4.13
2017-07-22T10:53:38.343Z,3.90
2017-07-22T10:56:05.874Z,3.60
2017-07-22T10:58:33.314Z,4.20
2017-07-22T11:01:01.625Z,5.30
2017-07-22T11:03:29.223Z,6.00
2017-07-22T11:05:57.646Z,4.47
2017-07-22T11:08:25.211Z,3.53
2017-07-22T11:10:52.815Z,4.13
2017-07-22T11:13:20.310Z,3.77
2017-07-22T11:15:47.782Z,3.00
2017-07-22T11:18:15.369Z,4.30
2017-07-22T11:20:42.893Z,6.10
2017-07-22T11:23:11.352Z,4.10
2017-07-22T11:25:39.822Z,9.07
2017-07-22T11:28:11.439Z,5.73
2017-07-22T11:30:39.984Z,8.53
2017-07-22T11:33:07.546Z,6.07
2017-07-22T11:35:35.131Z,5.97
2017-07-22T11:38:02.642Z,3.93
2017-07-22T11:40:30.219Z,3.57
2017-07-22T11:42:57.700Z,5.97
2017-07-22T11:45:25.496Z,5.47
2017-07-22T11:47:54.915Z,4.83
2017-07-22T11:50:22.525Z,8.13
2017-07-22T11:52:50.119Z,3.00
2017-07-22T11:55:18.465Z,4.90
2017-07-22T11:57:46.765Z,3.43
2017-07-22T12:00:14.319Z,3.90
2017-07-22T12:02:42.031Z,3.20
2017-07-22T12:05:09.540Z,5.47
2017-07-22T12:07:37.063Z,3.50
2017-07-22T12:10:04.552Z,3.97
2017-07-22T12:12:32.675Z,3.60
2017-07-22T12:15:01.159Z,4.73
2017-07-22T12:17:29.581Z,5.30
2017-07-22T12:19:58.063Z,3.80
2017-07-22T12:22:25.576Z,4.60
2017-07-22T12:24:54.084Z,3.13
2017-07-22T12:27:21.839Z,3.93
2017-07-22T12:29:50.106Z,2.77
2017-07-22T12:32:18.422Z,3.17
2017-07-22T12:34:47.238Z,4.77
2017-07-22T12:37:14.777Z,4.10
2017-07-22T12:39:43.523Z,3.87
2017-07-22T12:42:11.468Z,4.67
2017-07-22T12:44:40.320Z,5.23
2017-07-22T12:47:09.778Z,3.80
2017-07-22T12:49:37.339Z,3.70
2017-07-22T12:52:05.739Z,4.47
2017-07-22T12:54:35.712Z,5.00
2017-07-22T12:57:04.133Z,5.80
2017-07-22T12:59:32.102Z,4.10
2017-07-22T13:01:59.714Z,5.10
2017-07-22T13:04:27.173Z,6.13
2017-07-22T13:06:54.739Z,11.20
2017-07-22T13:09:22.310Z,4.30
2017-07-22T13:11:50.911Z,4.30
2017-07-22T13:14:18.475Z,5.33
2017-07-22T13:16:47.215Z,8.13
2017-07-22T13:19:14.787Z,4.53
2017-07-22T13:21:42.443Z,3.90
2017-07-22T13:24:10.047Z,7.93
2017-07-22T13:26:38.401Z,4.73
2017-07-22T13:29:06.836Z,5.77
2017-07-22T13:31:35.426Z,4.23
2017-07-22T13:34:03.011Z,4.20
2017-07-22T13:36:30.593Z,7.33
2017-07-22T13:38:58.916Z,3.53
2017-07-22T13:41:26.853Z,5.90
2017-07-22T13:43:54.391Z,3.53
2017-07-22T13:46:21.926Z,4.70
2017-07-22T13:48:49.482Z,3.90
2017-07-22T13:51:18.117Z,4.57
2017-07-22T13:53:45.742Z,4.50
2017-07-22T13:56:13.988Z,4.00
2017-07-22T13:58:41.682Z,4.97
2017-07-22T14:01:09.244Z,4.10
2017-07-22T14:03:37.004Z,6.60
2017-07-22T14:06:04.655Z,8.33
2017-07-22T14:08:32.118Z,5.10
2017-07-22T14:10:59.569Z,4.60
2017-07-22T14:13:27.425Z,4.73
2017-07-22T14:15:54.920Z,4.67
2017-07-22T14:18:23.430Z,4.03
2017-07-22T14:20:50.912Z,6.70
2017-07-22T14:23:18.501Z,5.20
2017-07-22T14:25:45.951Z,5.30
2017-07-22T14:28:13.438Z,4.80
2017-07-22T14:30:41.074Z,5.20
2017-07-22T14:33:08.635Z,5.73
2017-07-22T14:35:36.107Z,4.83
2017-07-22T14:38:04.585Z,4.57
2017-07-22T14:40:32.827Z,5.13
2017-07-22T14:43:00.435Z,5.30
2017-07-22T14:45:28.978Z,6.77
2017-07-22T14:47:56.517Z,4.83
2017-07-22T14:50:24.222Z,5.27
2017-07-22T14:52:51.727Z,5.67
2017-07-22T14:55:19.291Z,6.10
2017-07-22T14:57:47.169Z,5.00
2017-07-22T15:00:15.860Z,9.80
2017-07-22T15:02:43.314Z,9.93
2017-07-22T15:05:10.947Z,7.23
2017-07-22T15:07:38.393Z,5.37
2017-07-22T15:10:06.596Z,9.60
2017-07-22T15:12:34.121Z,5.37
2017-07-22T15:15:01.704Z,5.27
2017-07-22T15:17:29.216Z,7.73
2017-07-22T15:19:56.704Z,5.00
2017-07-22T15:22:24.171Z,4.90
2017-07-22T15:24:51.693Z,5.47
2017-07-22T15:27:19.140Z,6.20
2017-07-22T15:29:46.913Z,5.80
2017-07-22T15:32:14.998Z,5.50
2017-07-22T15:34:42.599Z,5.50
2017-07-22T15:37:10.198Z,5.70
2017-07-22T15:39:37.824Z,5.70
2017-07-22T15:42:05.422Z,7.30
2017-07-22T15:44:32.973Z,10.87
2017-07-22T15:47:00.571Z,11.57
2017-07-22T15:49:29.006Z,8.37
2017-07-22T15:51:56.473Z,8.13
2017-07-22T15:54:24.079Z,7.57
2017-07-22T15:56:51.604Z,6.83
2017-07-22T15:59:19.665Z,9.90
2017-07-22T16:01:47.279Z,8.20
2017-07-22T16:04:14.813Z,7.23
2017-07-22T16:06:43.103Z,7.07
2017-07-22T16:09:10.567Z,7.10
2017-07-22T16:11:38.076Z,8.83
2017-07-22T16:14:05.769Z,8.70
2017-07-22T16:16:33.229Z,8.10
2017-07-22T16:19:01.478Z,8.80
2017-07-22T16:21:28.975Z,6.70
2017-07-22T16:23:56.504Z,7.40
2017-07-22T16:26:24.828Z,5.90
2017-07-22T16:28:52.367Z,6.20
2017-07-22T16:31:19.820Z,6.40
2017-07-22T16:33:48.391Z,5.50
2017-07-22T16:36:16.600Z,4.80
2017-07-22T16:38:44.114Z,9.37
2017-07-22T16:41:11.635Z,5.80
2017-07-22T16:43:39.124Z,7.00
2017-07-22T16:46:06.580Z,6.67
2017-07-22T16:48:35.012Z,4.97
2017-07-22T16:51:02.552Z,6.07
2017-07-22T16:53:30.205Z,10.33
2017-07-22T16:55:57.683Z,6.03
2017-07-22T16:58:25.148Z,7.30
2017-07-22T17:00:52.605Z,6.57
2017-07-22T17:03:20.068Z,5.50
2017-07-22T17:05:47.556Z,6.63
2017-07-22T17:08:15.069Z,7.10
2017-07-22T17:10:42.631Z,7.67
2017-07-22T17:13:10.104Z,7.30
2017-07-22T17:15:37.660Z,6.73
2017-07-22T17:18:05.996Z,7.50
2017-07-22T17:20:33.665Z,7.00
2017-07-22T17:23:01.232Z,8.33
2017-07-22T17:25:28.773Z,7.10
2017-07-22T17:27:56.285Z,6.30
2017-07-22T17:30:23.946Z,9.80
2017-07-22T17:32:53.024Z,8.37
2017-07-22T17:35:20.518Z,7.83
2017-07-22T17:37:48.333Z,7.47
2017-07-22T17:40:16.728Z,6.63
2017-07-22T17:42:44.376Z,7.40
2017-07-22T17:45:11.810Z,6.73
2017-07-22T17:47:39.307Z,8.20
2017-07-22T17:50:06.753Z,8.40
2017-07-22T17:52:34.312Z,7.40
2017-07-22T17:55:01.914Z,10.53
2017-07-22T17:57:30.367Z,6.97
2017-07-22T17:59:57.876Z,11.40
2017-07-22T18:02:26.313Z,10.77
2017-07-22T18:04:54.304Z,11.20
2017-07-22T18:07:22.627Z,10.10
2017-07-22T18:09:50.242Z,15.00
2017-07-22T18:12:17.850Z,14.57
2017-07-22T18:14:45.521Z,11.00
2017-07-22T18:17:13.701Z,8.43
2017-07-22T18:19:41.226Z,14.63
2017-07-22T18:22:08.655Z,14.73
2017-07-22T18:24:36.151Z,16.37
2017-07-22T18:27:03.731Z,12.87
2017-07-22T18:29:31.367Z,14.83
2017-07-22T18:31:58.865Z,9.70
2017-07-22T18:34:26.418Z,8.30
2017-07-22T18:36:54.362Z,6.60
2017-07-22T18:39:21.893Z,6.53
2017-07-22T18:41:49.470Z,8.23
2017-07-22T18:44:16.976Z,11.87
2017-07-22T18:46:44.474Z,9.30
2017-07-22T18:49:11.958Z,7.40
2017-07-22T18:51:39.426Z,7.13
2017-07-22T18:54:06.975Z,7.83
2017-07-22T18:56:34.603Z,7.47
2017-07-22T18:59:02.147Z,8.30
2017-07-22T19:01:31.120Z,9.47
2017-07-22T19:03:58.789Z,15.23
2017-07-22T19:06:27.416Z,9.00
2017-07-22T19:08:55.359Z,10.67
2017-07-22T19:11:23.842Z,8.83
2017-07-22T19:13:51.310Z,9.00
2017-07-22T19:16:19.519Z,8.77
2017-07-22T19:18:47.038Z,12.80
2017-07-22T19:21:14.537Z,8.17
2017-07-22T19:23:42.035Z,7.13
2017-07-22T19:26:09.578Z,6.77
2017-07-22T19:28:37.326Z,11.47
2017-07-22T19:31:04.852Z,8.00
2017-07-22T19:33:32.318Z,11.03
2017-07-22T19:35:59.778Z,8.87
2017-07-22T19:38:27.231Z,12.27
2017-07-22T19:40:54.700Z,10.83
2017-07-22T19:43:22.125Z,7.93
2017-07-22T19:45:49.736Z,12.50
2017-07-22T19:48:17.544Z,10.33
2017-07-22T19:50:45.140Z,12.50
2017-07-22T19:53:12.785Z,11.37
2017-07-22T19:55:40.335Z,10.20
2017-07-22T19:58:07.915Z,8.37
2017-07-22T20:00:35.355Z,9.97
2017-07-22T20:03:02.850Z,9.13
2017-07-22T20:05:30.316Z,7.43
2017-07-22T20:07:57.883Z,11.53
2017-07-22T20:10:25.625Z,9.70
2017-07-22T20:12:53.114Z,16.50
2017-07-22T20:15:20.599Z,9.50
2017-07-22T20:17:48.115Z,8.20
2017-07-22T20:20:16.667Z,7.90
2017-07-22T20:22:44.363Z,9.80
2017-07-22T20:25:12.010Z,8.70
2017-07-22T20:27:39.523Z,8.73
2017-07-22T20:30:07.196Z,8.30
2017-07-22T20:32:34.742Z,9.37
2017-07-22T20:35:03.050Z,9.43
2017-07-22T20:37:31.119Z,7.50
2017-07-22T20:39:58.599Z,7.70
2017-07-22T20:42:26.147Z,9.07
2017-07-22T20:44:53.771Z,9.27
2017-07-22T20:47:21.363Z,11.03
2017-07-22T20:49:48.823Z,10.87
2017-07-22T20:52:16.319Z,13.30
2017-07-22T20:54:43.867Z,11.67
2017-07-22T20:57:11.625Z,7.50
2017-07-22T20:59:39.095Z,10.60
2017-07-22T21:02:06.731Z,8.20
2017-07-22T21:04:34.536Z,8.87
2017-07-22T21:07:02.387Z,8.50
2017-07-22T21:09:31.276Z,7.80
2017-07-22T21:11:58.826Z,9.40
2017-07-22T21:14:26.515Z,10.40
2017-07-22T21:16:54.878Z,12.90
2017-07-22T21:19:22.358Z,11.50
2017-07-22T21:21:50.076Z,10.60
2017-07-22T21:24:17.539Z,8.50
2017-07-22T21:26:45.494Z,24.53
2017-07-22T21:29:13.003Z,15.43
2017-07-22T21:31:42.203Z,15.90
2017-07-22T21:34:10.504Z,8.50
2017-07-22T21:36:38.022Z,8.47
2017-07-22T21:39:05.524Z,10.50
2017-07-22T21:41:33.169Z,10.10
2017-07-22T21:44:01.460Z,11.83
2017-07-22T21:46:29.040Z,7.93
2017-07-22T21:49:01.088Z,10.77
2017-07-22T21:51:28.674Z,11.27
2017-07-22T21:53:56.149Z,10.07
2017-07-22T21:56:23.610Z,11.73
2017-07-22T21:58:51.435Z,14.17
2017-07-22T22:01:19.171Z,12.90
2017-07-22T22:03:47.498Z,11.33
2017-07-22T22:06:15.830Z,8.57
2017-07-22T22:08:43.339Z,12.40
2017-07-22T22:11:11.206Z,11.53
2017-07-22T22:13:38.694Z,14.47
2017-07-22T22:16:06.155Z,12.27
2017-07-22T22:18:34.480Z,10.07
2017-07-22T22:21:02.013Z,12.27
2017-07-22T22:23:29.615Z,9.33
2017-07-22T22:25:57.069Z,11.83
2017-07-22T22:28:24.694Z,7.80
2017-07-22T22:30:52.947Z,6.93
2017-07-22T22:33:21.243Z,8.97
2017-07-22T22:35:48.826Z,13.90
2017-07-22T22:38:16.265Z,8.23
2017-07-22T22:40:44.623Z,8.47
2017-07-22T22:43:12.071Z,8.90
2017-07-22T22:45:39.636Z,10.20
2017-07-22T22:48:07.190Z,10.33
2017-07-22T22:50:35.500Z,12.23
2017-07-22T22:53:02.951Z,10.50
2017-07-22T22:55:30.484Z,12.00
2017-07-22T22:57:57.938Z,9.00
2017-07-22T23:00:25.487Z,8.47
2017-07-22T23:02:52.976Z,8.23
2017-07-22T23:05:20.415Z,9.00
2017-07-22T23:07:47.886Z,7.80
2017-07-22T23:10:15.618Z,9.30
2017-07-22T23:12:43.074Z,7.83
2017-07-22T23:15:10.538Z,11.30
2017-07-22T23:17:38.043Z,10.20
2017-07-22T23:20:06.471Z,10.73
2017-07-22T23:22:33.956Z,11.10
2017-07-22T23:25:03.982Z,15.43
2017-07-22T23:27:31.475Z,11.10
2017-07-22T23:29:58.936Z,10.43
2017-07-22T23:32:27.742Z,11.17
2017-07-22T23:34:55.459Z,12.83
2017-07-22T23:37:23.058Z,12.60
2017-07-22T23:39:50.530Z,9.97
2017-07-22T23:42:17.985Z,12.83
2017-07-22T23:44:45.461Z,12.57
2017-07-22T23:47:13.060Z,12.27
2017-07-22T23:49:40.519Z,13.97
2017-07-22T23:52:08.014Z,11.60
2017-07-22T23:54:35.636Z,14.17
2017-07-22T23:57:03.201Z,11.97
2017-07-22T23:59:30.730Z,13.80
